sensor_id;sensor_type;location;lat;lon;timestamp;P1;durP1;ratioP1;P2;durP2;ratioP2
9306;SDS011;4691;47.612;7.610;2022-09-20T00:01:50;11.40;;;3.55;;
9306;SDS011;4691;47.612;7.610;2022-09-20T00:07:25;4.93;;;2.80;;
9306;SDS011;4691;47.612;7.610;2022-09-20T00:10:14;8.30;;;3.33;;
9306;SDS011;4691;47.612;7.610;2022-09-20T00:13:04;14.00;;;3.10;;
9306;SDS011;4691;47.612;7.610;2022-09-20T00:15:50;6.47;;;3.13;;
9306;SDS011;4691;47.612;7.610;2022-09-20T00:18:46;9.73;;;3.95;;
9306;SDS011;4691;47.612;7.610;2022-09-20T00:21:25;10.13;;;3.05;;
9306;SDS011;4691;47.612;7.610;2022-09-20T00:24:00;9.80;;;3.17;;
9306;SDS011;4691;47.612;7.610;2022-09-20T00:26:37;10.10;;;3.10;;
9306;SDS011;4691;47.612;7.610;2022-09-20T00:29:51;7.40;;;2.90;;
9306;SDS011;4691;47.612;7.610;2022-09-20T00:32:37;11.98;;;3.35;;
9306;SDS011;4691;47.612;7.610;2022-09-20T00:35:15;7.93;;;3.38;;
9306;SDS011;4691;47.612;7.610;2022-09-20T00:38:09;12.50;;;3.83;;
9306;SDS011;4691;47.612;7.610;2022-09-20T00:40:49;11.13;;;3.00;;
9306;SDS011;4691;47.612;7.610;2022-09-20T00:43:33;14.18;;;3.85;;
9306;SDS011;4691;47.612;7.610;2022-09-20T00:46:52;7.38;;;3.30;;
9306;SDS011;4691;47.612;7.610;2022-09-20T00:49:10;6.43;;;2.97;;
9306;SDS011;4691;47.612;7.610;2022-09-20T00:52:23;9.32;;;2.92;;
9306;SDS011;4691;47.612;7.610;2022-09-20T00:55:10;6.40;;;2.92;;
9306;SDS011;4691;47.612;7.610;2022-09-20T00:57:48;6.97;;;3.22;;
9306;SDS011;4691;47.612;7.610;2022-09-20T01:00:43;8.77;;;2.80;;
9306;SDS011;4691;47.612;7.610;2022-09-20T01:03:50;10.70;;;3.35;;
9306;SDS011;4691;47.612;7.610;2022-09-20T01:06:29;7.15;;;3.50;;
9306;SDS011;4691;47.612;7.610;2022-09-20T01:09:13;10.05;;;3.20;;
9306;SDS011;4691;47.612;7.610;2022-09-20T01:11:46;13.68;;;3.20;;
9306;SDS011;4691;47.612;7.610;2022-09-20T01:14:22;16.38;;;3.60;;
9306;SDS011;4691;47.612;7.610;2022-09-20T01:17:06;8.93;;;3.53;;
9306;SDS011;4691;47.612;7.610;2022-09-20T01:32:18;8.82;;;3.05;;
9306;SDS011;4691;47.612;7.610;2022-09-20T01:35:05;7.75;;;2.72;;
9306;SDS011;4691;47.612;7.610;2022-09-20T01:43:51;11.10;;;2.63;;
9306;SDS011;4691;47.612;7.610;2022-09-20T01:46:48;7.72;;;3.38;;
9306;SDS011;4691;47.612;7.610;2022-09-20T01:49:54;8.75;;;3.03;;
9306;SDS011;4691;47.612;7.610;2022-09-20T02:05:17;12.52;;;3.80;;
9306;SDS011;4691;47.612;7.610;2022-09-20T02:10:33;10.52;;;3.30;;
9306;SDS011;4691;47.612;7.610;2022-09-20T02:39:30;8.27;;;2.95;;
9306;SDS011;4691;47.612;7.610;2022-09-20T02:55:23;10.32;;;3.78;;
9306;SDS011;4691;47.612;7.610;2022-09-20T03:08:26;8.65;;;3.38;;
9306;SDS011;4691;47.612;7.610;2022-09-20T03:14:23;12.50;;;3.65;;
9306;SDS011;4691;47.612;7.610;2022-09-20T03:23:13;10.15;;;3.60;;
9306;SDS011;4691;47.612;7.610;2022-09-20T03:50:46;7.78;;;3.13;;
9306;SDS011;4691;47.612;7.610;2022-09-20T04:00:21;6.90;;;3.40;;
9306;SDS011;4691;47.612;7.610;2022-09-20T04:15:28;10.23;;;3.45;;
9306;SDS011;4691;47.612;7.610;2022-09-20T04:27:48;11.88;;;4.45;;
9306;SDS011;4691;47.612;7.610;2022-09-20T04:34:24;8.50;;;3.92;;
9306;SDS011;4691;47.612;7.610;2022-09-20T04:37:24;8.32;;;3.53;;
9306;SDS011;4691;47.612;7.610;2022-09-20T04:52:45;9.23;;;4.07;;
9306;SDS011;4691;47.612;7.610;2022-09-20T05:08:24;11.07;;;4.18;;
9306;SDS011;4691;47.612;7.610;2022-09-20T05:12:26;11.27;;;3.15;;
9306;SDS011;4691;47.612;7.610;2022-09-20T05:27:19;9.20;;;4.35;;
9306;SDS011;4691;47.612;7.610;2022-09-20T05:33:21;13.68;;;5.03;;
9306;SDS011;4691;47.612;7.610;2022-09-20T05:36:23;11.68;;;5.05;;
9306;SDS011;4691;47.612;7.610;2022-09-20T05:45:48;17.15;;;4.70;;
9306;SDS011;4691;47.612;7.610;2022-09-20T05:54:59;10.57;;;4.53;;
9306;SDS011;4691;47.612;7.610;2022-09-20T06:00:26;13.38;;;4.90;;
9306;SDS011;4691;47.612;7.610;2022-09-20T06:06:32;13.48;;;5.45;;
9306;SDS011;4691;47.612;7.610;2022-09-20T06:13:19;14.68;;;5.28;;
9306;SDS011;4691;47.612;7.610;2022-09-20T06:15:56;8.93;;;4.80;;
9306;SDS011;4691;47.612;7.610;2022-09-20T06:18:32;11.20;;;4.85;;
9306;SDS011;4691;47.612;7.610;2022-09-20T06:38:33;9.60;;;4.80;;
9306;SDS011;4691;47.612;7.610;2022-09-20T06:48:17;13.93;;;5.20;;
9306;SDS011;4691;47.612;7.610;2022-09-20T06:50:55;14.82;;;5.55;;
9306;SDS011;4691;47.612;7.610;2022-09-20T06:53:25;11.40;;;5.22;;
9306;SDS011;4691;47.612;7.610;2022-09-20T06:56:17;11.00;;;5.30;;
9306;SDS011;4691;47.612;7.610;2022-09-20T06:58:59;15.30;;;6.07;;
9306;SDS011;4691;47.612;7.610;2022-09-20T07:01:31;9.20;;;4.63;;
9306;SDS011;4691;47.612;7.610;2022-09-20T07:04:04;12.13;;;5.05;;
9306;SDS011;4691;47.612;7.610;2022-09-20T07:07:18;11.88;;;4.82;;
9306;SDS011;4691;47.612;7.610;2022-09-20T07:09:56;12.00;;;5.28;;
9306;SDS011;4691;47.612;7.610;2022-09-20T07:12:30;12.55;;;4.90;;
9306;SDS011;4691;47.612;7.610;2022-09-20T07:18:24;9.57;;;4.85;;
9306;SDS011;4691;47.612;7.610;2022-09-20T07:21:14;18.10;;;4.70;;
9306;SDS011;4691;47.612;7.610;2022-09-20T07:27:01;10.85;;;5.05;;
9306;SDS011;4691;47.612;7.610;2022-09-20T07:36:32;12.60;;;5.45;;
9306;SDS011;4691;47.612;7.610;2022-09-20T07:39:06;14.60;;;5.13;;
9306;SDS011;4691;47.612;7.610;2022-09-20T07:42:15;12.73;;;4.93;;
9306;SDS011;4691;47.612;7.610;2022-09-20T07:45:18;8.80;;;4.60;;
9306;SDS011;4691;47.612;7.610;2022-09-20T07:47:58;10.73;;;5.15;;
9306;SDS011;4691;47.612;7.610;2022-09-20T07:50:29;15.70;;;5.25;;
9306;SDS011;4691;47.612;7.610;2022-09-20T07:53:38;13.90;;;5.25;;
9306;SDS011;4691;47.612;7.610;2022-09-20T08:03:45;9.25;;;5.20;;
9306;SDS011;4691;47.612;7.610;2022-09-20T08:06:11;14.75;;;6.47;;
9306;SDS011;4691;47.612;7.610;2022-09-20T08:21:21;15.27;;;5.75;;
9306;SDS011;4691;47.612;7.610;2022-09-20T08:24:27;15.90;;;5.72;;
9306;SDS011;4691;47.612;7.610;2022-09-20T08:26:58;15.45;;;5.60;;
9306;SDS011;4691;47.612;7.610;2022-09-20T08:29:53;14.40;;;5.60;;
9306;SDS011;4691;47.612;7.610;2022-09-20T08:32:41;21.85;;;7.50;;
9306;SDS011;4691;47.612;7.610;2022-09-20T08:35:16;14.23;;;6.18;;
9306;SDS011;4691;47.612;7.610;2022-09-20T08:37:55;11.93;;;5.20;;
9306;SDS011;4691;47.612;7.610;2022-09-20T08:40:34;19.58;;;5.72;;
9306;SDS011;4691;47.612;7.610;2022-09-20T08:43:06;12.63;;;5.28;;
9306;SDS011;4691;47.612;7.610;2022-09-20T08:46:16;17.08;;;5.88;;
9306;SDS011;4691;47.612;7.610;2022-09-20T08:49:09;11.57;;;5.47;;
9306;SDS011;4691;47.612;7.610;2022-09-20T08:51:48;13.73;;;5.38;;
9306;SDS011;4691;47.612;7.610;2022-09-20T08:54:33;16.10;;;5.28;;
9306;SDS011;4691;47.612;7.610;2022-09-20T08:57:20;11.43;;;4.93;;
9306;SDS011;4691;47.612;7.610;2022-09-20T09:00:20;15.85;;;4.57;;
9306;SDS011;4691;47.612;7.610;2022-09-20T09:03:05;17.02;;;5.40;;
9306;SDS011;4691;47.612;7.610;2022-09-20T09:08:52;19.98;;;5.88;;
9306;SDS011;4691;47.612;7.610;2022-09-20T09:11:26;18.98;;;5.53;;
9306;SDS011;4691;47.612;7.610;2022-09-20T09:14:33;14.05;;;5.03;;
9306;SDS011;4691;47.612;7.610;2022-09-20T09:17:29;21.20;;;5.53;;
9306;SDS011;4691;47.612;7.610;2022-09-20T09:20:25;16.23;;;4.60;;
9306;SDS011;4691;47.612;7.610;2022-09-20T09:23:08;9.98;;;4.57;;
9306;SDS011;4691;47.612;7.610;2022-09-20T09:25:49;14.80;;;4.90;;
9306;SDS011;4691;47.612;7.610;2022-09-20T09:28:16;12.52;;;3.97;;
9306;SDS011;4691;47.612;7.610;2022-09-20T09:34:00;8.73;;;4.47;;
9306;SDS011;4691;47.612;7.610;2022-09-20T09:37:08;11.93;;;4.30;;
9306;SDS011;4691;47.612;7.610;2022-09-20T09:42:48;20.77;;;4.78;;
9306;SDS011;4691;47.612;7.610;2022-09-20T09:45:38;16.52;;;4.55;;
9306;SDS011;4691;47.612;7.610;2022-09-20T09:55:11;15.57;;;4.45;;
9306;SDS011;4691;47.612;7.610;2022-09-20T10:38:13;12.25;;;4.00;;
9306;SDS011;4691;47.612;7.610;2022-09-20T10:44:01;11.98;;;3.33;;
9306;SDS011;4691;47.612;7.610;2022-09-20T10:52:34;10.57;;;3.38;;
9306;SDS011;4691;47.612;7.610;2022-09-20T11:06:00;11.40;;;2.60;;
9306;SDS011;4691;47.612;7.610;2022-09-20T11:08:42;6.90;;;2.30;;
9306;SDS011;4691;47.612;7.610;2022-09-20T11:11:23;10.70;;;2.55;;
9306;SDS011;4691;47.612;7.610;2022-09-20T11:14:03;10.75;;;3.13;;
9306;SDS011;4691;47.612;7.610;2022-09-20T11:16:54;6.95;;;2.40;;
9306;SDS011;4691;47.612;7.610;2022-09-20T11:19:45;8.98;;;2.33;;
9306;SDS011;4691;47.612;7.610;2022-09-20T11:25:14;7.50;;;2.17;;
9306;SDS011;4691;47.612;7.610;2022-09-20T11:28:00;8.85;;;1.95;;
9306;SDS011;4691;47.612;7.610;2022-09-20T11:30:33;5.53;;;2.25;;
9306;SDS011;4691;47.612;7.610;2022-09-20T11:35:59;6.95;;;2.60;;
9306;SDS011;4691;47.612;7.610;2022-09-20T11:38:31;12.43;;;2.97;;
9306;SDS011;4691;47.612;7.610;2022-09-20T11:41:01;5.53;;;1.85;;
9306;SDS011;4691;47.612;7.610;2022-09-20T11:43:32;9.10;;;2.38;;
9306;SDS011;4691;47.612;7.610;2022-09-20T11:46:03;5.82;;;1.58;;
9306;SDS011;4691;47.612;7.610;2022-09-20T11:51:31;6.40;;;1.60;;
9306;SDS011;4691;47.612;7.610;2022-09-20T11:54:08;3.78;;;1.45;;
9306;SDS011;4691;47.612;7.610;2022-09-20T11:56:36;6.25;;;1.65;;
9306;SDS011;4691;47.612;7.610;2022-09-20T11:59:04;8.40;;;1.92;;
9306;SDS011;4691;47.612;7.610;2022-09-20T12:01:35;3.65;;;1.60;;
9306;SDS011;4691;47.612;7.610;2022-09-20T12:04:19;3.80;;;1.30;;
9306;SDS011;4691;47.612;7.610;2022-09-20T12:06:54;4.50;;;1.40;;
9306;SDS011;4691;47.612;7.610;2022-09-20T12:09:32;4.95;;;1.30;;
9306;SDS011;4691;47.612;7.610;2022-09-20T12:12:15;2.30;;;0.90;;
9306;SDS011;4691;47.612;7.610;2022-09-20T12:14:52;5.78;;;1.77;;
9306;SDS011;4691;47.612;7.610;2022-09-20T12:33:56;6.40;;;2.13;;
9306;SDS011;4691;47.612;7.610;2022-09-20T12:36:24;4.05;;;1.20;;
9306;SDS011;4691;47.612;7.610;2022-09-20T12:38:59;3.20;;;0.88;;
9306;SDS011;4691;47.612;7.610;2022-09-20T12:41:42;2.83;;;1.10;;
9306;SDS011;4691;47.612;7.610;2022-09-20T12:44:57;3.72;;;1.30;;
9306;SDS011;4691;47.612;7.610;2022-09-20T13:11:42;2.25;;;1.02;;
9306;SDS011;4691;47.612;7.610;2022-09-20T13:19:20;2.88;;;1.13;;
9306;SDS011;4691;47.612;7.610;2022-09-20T13:24:25;3.15;;;0.88;;
9306;SDS011;4691;47.612;7.610;2022-09-20T13:26:53;3.78;;;1.10;;
9306;SDS011;4691;47.612;7.610;2022-09-20T13:29:38;2.03;;;1.05;;
9306;SDS011;4691;47.612;7.610;2022-09-20T13:37:36;2.13;;;1.02;;
9306;SDS011;4691;47.612;7.610;2022-09-20T13:40:14;7.30;;;1.27;;
9306;SDS011;4691;47.612;7.610;2022-09-20T13:42:42;3.55;;;0.90;;
9306;SDS011;4691;47.612;7.610;2022-09-20T13:45:08;2.55;;;1.05;;
9306;SDS011;4691;47.612;7.610;2022-09-20T13:47:40;2.40;;;1.20;;
9306;SDS011;4691;47.612;7.610;2022-09-20T13:50:17;4.55;;;1.20;;
9306;SDS011;4691;47.612;7.610;2022-09-20T13:52:51;5.65;;;0.93;;
9306;SDS011;4691;47.612;7.610;2022-09-20T13:55:32;3.30;;;1.00;;
9306;SDS011;4691;47.612;7.610;2022-09-20T13:58:23;2.72;;;1.08;;
9306;SDS011;4691;47.612;7.610;2022-09-20T14:00:49;2.53;;;1.00;;
9306;SDS011;4691;47.612;7.610;2022-09-20T14:03:17;3.50;;;1.10;;
9306;SDS011;4691;47.612;7.610;2022-09-20T14:05:45;1.70;;;1.05;;
9306;SDS011;4691;47.612;7.610;2022-09-20T14:08:23;3.92;;;1.17;;
9306;SDS011;4691;47.612;7.610;2022-09-20T14:13:45;3.05;;;1.08;;
9306;SDS011;4691;47.612;7.610;2022-09-20T14:16:13;2.33;;;1.00;;
9306;SDS011;4691;47.612;7.610;2022-09-20T14:18:40;2.28;;;1.10;;
9306;SDS011;4691;47.612;7.610;2022-09-20T14:21:07;3.78;;;1.33;;
9306;SDS011;4691;47.612;7.610;2022-09-20T14:23:48;1.92;;;1.15;;
9306;SDS011;4691;47.612;7.610;2022-09-20T14:26:29;1.98;;;1.20;;
9306;SDS011;4691;47.612;7.610;2022-09-20T14:29:26;1.63;;;1.10;;
9306;SDS011;4691;47.612;7.610;2022-09-20T14:31:51;2.88;;;1.08;;
9306;SDS011;4691;47.612;7.610;2022-09-20T14:34:18;3.47;;;1.00;;
9306;SDS011;4691;47.612;7.610;2022-09-20T14:36:44;1.98;;;0.93;;
9306;SDS011;4691;47.612;7.610;2022-09-20T14:39:14;2.63;;;1.20;;
9306;SDS011;4691;47.612;7.610;2022-09-20T14:41:42;3.92;;;1.42;;
9306;SDS011;4691;47.612;7.610;2022-09-20T14:46:55;2.50;;;0.90;;
9306;SDS011;4691;47.612;7.610;2022-09-20T14:51:50;3.00;;;0.90;;
9306;SDS011;4691;47.612;7.610;2022-09-20T14:54:24;2.78;;;0.90;;
9306;SDS011;4691;47.612;7.610;2022-09-20T14:56:52;2.22;;;1.08;;
9306;SDS011;4691;47.612;7.610;2022-09-20T15:01:59;3.65;;;1.20;;
9306;SDS011;4691;47.612;7.610;2022-09-20T15:04:27;1.75;;;0.88;;
9306;SDS011;4691;47.612;7.610;2022-09-20T15:06:55;4.50;;;0.90;;
9306;SDS011;4691;47.612;7.610;2022-09-20T15:09:24;4.60;;;0.93;;
9306;SDS011;4691;47.612;7.610;2022-09-20T15:11:59;1.60;;;0.90;;
9306;SDS011;4691;47.612;7.610;2022-09-20T15:14:29;5.20;;;1.02;;
9306;SDS011;4691;47.612;7.610;2022-09-20T15:16:54;3.30;;;1.17;;
9306;SDS011;4691;47.612;7.610;2022-09-20T15:19:21;2.92;;;1.13;;
9306;SDS011;4691;47.612;7.610;2022-09-20T15:21:46;2.25;;;1.00;;
9306;SDS011;4691;47.612;7.610;2022-09-20T15:24:11;1.98;;;1.02;;
9306;SDS011;4691;47.612;7.610;2022-09-20T15:26:36;4.53;;;1.08;;
9306;SDS011;4691;47.612;7.610;2022-09-20T15:29:02;2.50;;;1.20;;
9306;SDS011;4691;47.612;7.610;2022-09-20T15:31:28;2.33;;;1.20;;
9306;SDS011;4691;47.612;7.610;2022-09-20T15:33:53;4.05;;;1.20;;
9306;SDS011;4691;47.612;7.610;2022-09-20T15:36:18;4.00;;;1.20;;
9306;SDS011;4691;47.612;7.610;2022-09-20T15:38:44;4.40;;;1.40;;
9306;SDS011;4691;47.612;7.610;2022-09-20T15:41:09;4.47;;;1.30;;
9306;SDS011;4691;47.612;7.610;2022-09-20T15:43:35;3.88;;;1.33;;
9306;SDS011;4691;47.612;7.610;2022-09-20T15:46:15;3.42;;;1.40;;
9306;SDS011;4691;47.612;7.610;2022-09-20T15:48:43;3.15;;;1.00;;
9306;SDS011;4691;47.612;7.610;2022-09-20T15:51:09;4.75;;;1.20;;
9306;SDS011;4691;47.612;7.610;2022-09-20T15:53:37;2.63;;;1.20;;
9306;SDS011;4691;47.612;7.610;2022-09-20T15:56:18;3.53;;;1.25;;
9306;SDS011;4691;47.612;7.610;2022-09-20T15:58:52;2.97;;;1.20;;
9306;SDS011;4691;47.612;7.610;2022-09-20T16:01:35;3.63;;;1.52;;
9306;SDS011;4691;47.612;7.610;2022-09-20T16:04:25;4.05;;;1.30;;
9306;SDS011;4691;47.612;7.610;2022-09-20T16:06:51;3.63;;;1.40;;
9306;SDS011;4691;47.612;7.610;2022-09-20T16:09:17;4.32;;;1.55;;
9306;SDS011;4691;47.612;7.610;2022-09-20T16:11:43;5.15;;;1.75;;
9306;SDS011;4691;47.612;7.610;2022-09-20T16:14:09;4.53;;;1.33;;
9306;SDS011;4691;47.612;7.610;2022-09-20T16:16:34;5.38;;;1.58;;
9306;SDS011;4691;47.612;7.610;2022-09-20T16:19:00;4.75;;;1.80;;
9306;SDS011;4691;47.612;7.610;2022-09-20T16:21:53;3.13;;;1.10;;
9306;SDS011;4691;47.612;7.610;2022-09-20T16:24:23;3.28;;;1.38;;
9306;SDS011;4691;47.612;7.610;2022-09-20T16:26:51;4.93;;;1.30;;
9306;SDS011;4691;47.612;7.610;2022-09-20T16:29:16;5.70;;;1.30;;
9306;SDS011;4691;47.612;7.610;2022-09-20T16:31:46;4.68;;;1.38;;
9306;SDS011;4691;47.612;7.610;2022-09-20T16:34:18;2.33;;;1.20;;
9306;SDS011;4691;47.612;7.610;2022-09-20T16:36:46;1.70;;;1.00;;
9306;SDS011;4691;47.612;7.610;2022-09-20T16:39:15;5.65;;;1.45;;
9306;SDS011;4691;47.612;7.610;2022-09-20T16:41:42;4.95;;;2.25;;
9306;SDS011;4691;47.612;7.610;2022-09-20T16:44:10;7.07;;;1.80;;
9306;SDS011;4691;47.612;7.610;2022-09-20T16:46:37;4.70;;;1.80;;
9306;SDS011;4691;47.612;7.610;2022-09-20T16:49:04;3.67;;;2.20;;
9306;SDS011;4691;47.612;7.610;2022-09-20T16:51:31;5.80;;;2.15;;
9306;SDS011;4691;47.612;7.610;2022-09-20T16:54:02;4.50;;;1.85;;
9306;SDS011;4691;47.612;7.610;2022-09-20T16:56:32;3.75;;;2.08;;
9306;SDS011;4691;47.612;7.610;2022-09-20T16:58:59;5.43;;;2.58;;
9306;SDS011;4691;47.612;7.610;2022-09-20T17:01:25;5.03;;;2.50;;
9306;SDS011;4691;47.612;7.610;2022-09-20T17:03:51;5.90;;;2.55;;
9306;SDS011;4691;47.612;7.610;2022-09-20T17:06:16;4.03;;;1.90;;
9306;SDS011;4691;47.612;7.610;2022-09-20T17:08:43;4.90;;;2.30;;
9306;SDS011;4691;47.612;7.610;2022-09-20T17:11:13;7.25;;;3.28;;
9306;SDS011;4691;47.612;7.610;2022-09-20T17:13:43;4.78;;;3.00;;
9306;SDS011;4691;47.612;7.610;2022-09-20T17:16:13;11.60;;;4.65;;
9306;SDS011;4691;47.612;7.610;2022-09-20T17:18:40;8.10;;;3.78;;
9306;SDS011;4691;47.612;7.610;2022-09-20T17:21:13;4.03;;;2.55;;
9306;SDS011;4691;47.612;7.610;2022-09-20T17:23:44;5.22;;;1.92;;
9306;SDS011;4691;47.612;7.610;2022-09-20T17:26:11;6.30;;;1.70;;
9306;SDS011;4691;47.612;7.610;2022-09-20T17:28:42;6.05;;;1.95;;
9306;SDS011;4691;47.612;7.610;2022-09-20T17:31:10;5.25;;;2.22;;
9306;SDS011;4691;47.612;7.610;2022-09-20T17:33:37;6.97;;;1.80;;
9306;SDS011;4691;47.612;7.610;2022-09-20T17:36:04;6.18;;;3.78;;
9306;SDS011;4691;47.612;7.610;2022-09-20T17:38:31;7.68;;;4.13;;
9306;SDS011;4691;47.612;7.610;2022-09-20T17:41:01;7.68;;;5.55;;
9306;SDS011;4691;47.612;7.610;2022-09-20T17:43:33;5.07;;;3.00;;
9306;SDS011;4691;47.612;7.610;2022-09-20T17:46:04;9.18;;;4.30;;
9306;SDS011;4691;47.612;7.610;2022-09-20T17:48:45;4.63;;;2.92;;
9306;SDS011;4691;47.612;7.610;2022-09-20T17:51:15;7.00;;;3.60;;
9306;SDS011;4691;47.612;7.610;2022-09-20T17:53:42;12.65;;;3.47;;
9306;SDS011;4691;47.612;7.610;2022-09-20T17:56:09;9.30;;;3.88;;
9306;SDS011;4691;47.612;7.610;2022-09-20T17:58:35;19.98;;;9.55;;
9306;SDS011;4691;47.612;7.610;2022-09-20T18:01:06;23.95;;;12.57;;
9306;SDS011;4691;47.612;7.610;2022-09-20T18:03:36;14.40;;;7.47;;
9306;SDS011;4691;47.612;7.610;2022-09-20T18:06:09;14.13;;;6.18;;
9306;SDS011;4691;47.612;7.610;2022-09-20T18:08:46;9.95;;;4.20;;
9306;SDS011;4691;47.612;7.610;2022-09-20T18:11:17;4.68;;;3.13;;
9306;SDS011;4691;47.612;7.610;2022-09-20T18:13:43;8.52;;;2.70;;
9306;SDS011;4691;47.612;7.610;2022-09-20T18:16:09;5.60;;;2.30;;
9306;SDS011;4691;47.612;7.610;2022-09-20T18:18:40;12.20;;;2.13;;
9306;SDS011;4691;47.612;7.610;2022-09-20T18:21:08;4.05;;;2.30;;
9306;SDS011;4691;47.612;7.610;2022-09-20T18:31:52;5.18;;;1.85;;
9306;SDS011;4691;47.612;7.610;2022-09-20T18:34:24;7.20;;;2.05;;
9306;SDS011;4691;47.612;7.610;2022-09-20T18:37:04;6.68;;;2.92;;
9306;SDS011;4691;47.612;7.610;2022-09-20T18:39:32;7.20;;;5.47;;
9306;SDS011;4691;47.612;7.610;2022-09-20T18:42:07;7.53;;;2.83;;
9306;SDS011;4691;47.612;7.610;2022-09-20T18:44:54;7.80;;;2.38;;
9306;SDS011;4691;47.612;7.610;2022-09-20T18:47:30;6.78;;;2.03;;
9306;SDS011;4691;47.612;7.610;2022-09-20T18:50:10;8.88;;;2.40;;
9306;SDS011;4691;47.612;7.610;2022-09-20T18:52:56;5.13;;;2.25;;
9306;SDS011;4691;47.612;7.610;2022-09-20T18:55:26;5.32;;;2.13;;
9306;SDS011;4691;47.612;7.610;2022-09-20T18:57:53;6.32;;;2.70;;
9306;SDS011;4691;47.612;7.610;2022-09-20T19:00:27;5.90;;;2.40;;
9306;SDS011;4691;47.612;7.610;2022-09-20T19:03:10;5.20;;;2.47;;
9306;SDS011;4691;47.612;7.610;2022-09-20T19:05:54;3.97;;;2.47;;
9306;SDS011;4691;47.612;7.610;2022-09-20T19:08:38;7.05;;;3.00;;
9306;SDS011;4691;47.612;7.610;2022-09-20T19:11:24;6.63;;;2.92;;
9306;SDS011;4691;47.612;7.610;2022-09-20T19:13:58;9.98;;;3.38;;
9306;SDS011;4691;47.612;7.610;2022-09-20T19:17:09;7.93;;;2.80;;
9306;SDS011;4691;47.612;7.610;2022-09-20T19:20:00;6.13;;;2.83;;
9306;SDS011;4691;47.612;7.610;2022-09-20T19:22:47;6.88;;;3.53;;
9306;SDS011;4691;47.612;7.610;2022-09-20T19:25:42;8.48;;;4.75;;
9306;SDS011;4691;47.612;7.610;2022-09-20T19:28:26;54.55;;;30.50;;
9306;SDS011;4691;47.612;7.610;2022-09-20T19:31:03;17.83;;;10.82;;
9306;SDS011;4691;47.612;7.610;2022-09-20T19:41:05;17.88;;;8.95;;
9306;SDS011;4691;47.612;7.610;2022-09-20T19:52:20;11.75;;;5.85;;
9306;SDS011;4691;47.612;7.610;2022-09-20T19:55:04;11.18;;;4.63;;
9306;SDS011;4691;47.612;7.610;2022-09-20T19:57:48;9.25;;;4.63;;
9306;SDS011;4691;47.612;7.610;2022-09-20T20:00:25;10.57;;;5.10;;
9306;SDS011;4691;47.612;7.610;2022-09-20T20:03:19;11.20;;;5.28;;
9306;SDS011;4691;47.612;7.610;2022-09-20T20:09:10;8.75;;;4.80;;
9306;SDS011;4691;47.612;7.610;2022-09-20T20:11:59;8.25;;;4.50;;
9306;SDS011;4691;47.612;7.610;2022-09-20T20:15:19;11.00;;;4.50;;
9306;SDS011;4691;47.612;7.610;2022-09-20T20:18:10;8.02;;;5.15;;
9306;SDS011;4691;47.612;7.610;2022-09-20T20:20:49;17.55;;;5.78;;
9306;SDS011;4691;47.612;7.610;2022-09-20T20:25:56;15.77;;;5.22;;
9306;SDS011;4691;47.612;7.610;2022-09-20T20:28:44;13.63;;;5.53;;
9306;SDS011;4691;47.612;7.610;2022-09-20T20:31:28;8.35;;;4.80;;
9306;SDS011;4691;47.612;7.610;2022-09-20T20:34:02;10.77;;;5.22;;
9306;SDS011;4691;47.612;7.610;2022-09-20T20:36:33;12.85;;;5.35;;
9306;SDS011;4691;47.612;7.610;2022-09-20T20:39:07;10.73;;;4.90;;
9306;SDS011;4691;47.612;7.610;2022-09-20T20:41:33;10.30;;;5.60;;
9306;SDS011;4691;47.612;7.610;2022-09-20T20:44:04;9.05;;;5.40;;
9306;SDS011;4691;47.612;7.610;2022-09-20T20:46:38;20.00;;;5.82;;
9306;SDS011;4691;47.612;7.610;2022-09-20T20:49:09;12.82;;;5.43;;
9306;SDS011;4691;47.612;7.610;2022-09-20T20:51:56;10.68;;;4.97;;
9306;SDS011;4691;47.612;7.610;2022-09-20T20:54:38;10.55;;;5.53;;
9306;SDS011;4691;47.612;7.610;2022-09-20T20:57:16;13.35;;;6.20;;
9306;SDS011;4691;47.612;7.610;2022-09-20T20:59:49;10.00;;;6.15;;
9306;SDS011;4691;47.612;7.610;2022-09-20T21:02:25;8.90;;;5.28;;
9306;SDS011;4691;47.612;7.610;2022-09-20T21:05:18;10.20;;;5.20;;
9306;SDS011;4691;47.612;7.610;2022-09-20T21:07:54;9.02;;;5.13;;
9306;SDS011;4691;47.612;7.610;2022-09-20T21:10:33;10.05;;;5.18;;
9306;SDS011;4691;47.612;7.610;2022-09-20T21:12:59;8.98;;;5.30;;
9306;SDS011;4691;47.612;7.610;2022-09-20T21:15:29;13.23;;;5.65;;
9306;SDS011;4691;47.612;7.610;2022-09-20T21:18:06;11.82;;;4.97;;
9306;SDS011;4691;47.612;7.610;2022-09-20T21:20:31;11.07;;;5.22;;
9306;SDS011;4691;47.612;7.610;2022-09-20T21:22:59;8.25;;;5.35;;
9306;SDS011;4691;47.612;7.610;2022-09-20T21:26:03;41.08;;;21.27;;
9306;SDS011;4691;47.612;7.610;2022-09-20T21:28:41;9.80;;;6.23;;
9306;SDS011;4691;47.612;7.610;2022-09-20T21:31:27;11.77;;;5.18;;
9306;SDS011;4691;47.612;7.610;2022-09-20T21:34:02;11.27;;;5.20;;
9306;SDS011;4691;47.612;7.610;2022-09-20T21:36:50;12.40;;;4.95;;
9306;SDS011;4691;47.612;7.610;2022-09-20T21:39:34;10.52;;;5.20;;
9306;SDS011;4691;47.612;7.610;2022-09-20T21:42:05;10.38;;;5.43;;
9306;SDS011;4691;47.612;7.610;2022-09-20T21:44:49;11.32;;;5.07;;
9306;SDS011;4691;47.612;7.610;2022-09-20T21:47:19;8.27;;;4.28;;
9306;SDS011;4691;47.612;7.610;2022-09-20T21:50:11;10.93;;;5.43;;
9306;SDS011;4691;47.612;7.610;2022-09-20T21:52:39;13.15;;;4.80;;
9306;SDS011;4691;47.612;7.610;2022-09-20T21:55:14;9.88;;;3.67;;
9306;SDS011;4691;47.612;7.610;2022-09-20T21:57:45;8.70;;;4.10;;
9306;SDS011;4691;47.612;7.610;2022-09-20T22:00:23;8.40;;;3.85;;
9306;SDS011;4691;47.612;7.610;2022-09-20T22:03:00;7.75;;;3.92;;
9306;SDS011;4691;47.612;7.610;2022-09-20T22:05:55;8.40;;;4.40;;
9306;SDS011;4691;47.612;7.610;2022-09-20T22:08:32;7.78;;;4.13;;
9306;SDS011;4691;47.612;7.610;2022-09-20T22:11:26;7.18;;;3.63;;
9306;SDS011;4691;47.612;7.610;2022-09-20T22:14:05;9.68;;;3.90;;
9306;SDS011;4691;47.612;7.610;2022-09-20T22:16:45;10.32;;;4.32;;
9306;SDS011;4691;47.612;7.610;2022-09-20T22:22:49;6.35;;;3.53;;
9306;SDS011;4691;47.612;7.610;2022-09-20T22:25:18;6.97;;;3.63;;
9306;SDS011;4691;47.612;7.610;2022-09-20T22:27:57;6.57;;;3.75;;
9306;SDS011;4691;47.612;7.610;2022-09-20T22:30:26;8.63;;;3.92;;
9306;SDS011;4691;47.612;7.610;2022-09-20T22:32:57;7.40;;;4.05;;
9306;SDS011;4691;47.612;7.610;2022-09-20T22:35:31;10.70;;;3.60;;
9306;SDS011;4691;47.612;7.610;2022-09-20T22:38:09;7.28;;;3.50;;
9306;SDS011;4691;47.612;7.610;2022-09-20T22:40:54;7.78;;;3.63;;
9306;SDS011;4691;47.612;7.610;2022-09-20T22:43:32;10.27;;;3.85;;
9306;SDS011;4691;47.612;7.610;2022-09-20T22:49:02;8.73;;;3.63;;
9306;SDS011;4691;47.612;7.610;2022-09-20T22:51:37;5.50;;;3.03;;
9306;SDS011;4691;47.612;7.610;2022-09-20T22:57:11;8.75;;;3.85;;
9306;SDS011;4691;47.612;7.610;2022-09-20T22:59:50;7.85;;;3.80;;
9306;SDS011;4691;47.612;7.610;2022-09-20T23:02:21;10.00;;;4.07;;
9306;SDS011;4691;47.612;7.610;2022-09-20T23:05:15;7.90;;;3.80;;
9306;SDS011;4691;47.612;7.610;2022-09-20T23:07:54;8.88;;;4.53;;
9306;SDS011;4691;47.612;7.610;2022-09-20T23:10:48;6.65;;;3.55;;
9306;SDS011;4691;47.612;7.610;2022-09-20T23:13:28;12.48;;;4.25;;
9306;SDS011;4691;47.612;7.610;2022-09-20T23:15:56;9.45;;;4.22;;
9306;SDS011;4691;47.612;7.610;2022-09-20T23:18:33;8.88;;;4.47;;
9306;SDS011;4691;47.612;7.610;2022-09-20T23:21:05;13.05;;;4.25;;
9306;SDS011;4691;47.612;7.610;2022-09-20T23:23:36;10.13;;;4.50;;
9306;SDS011;4691;47.612;7.610;2022-09-20T23:26:16;8.95;;;4.28;;
9306;SDS011;4691;47.612;7.610;2022-09-20T23:31:37;10.82;;;4.32;;
9306;SDS011;4691;47.612;7.610;2022-09-20T23:34:15;11.43;;;4.60;;
9306;SDS011;4691;47.612;7.610;2022-09-20T23:37:01;8.40;;;4.35;;
9306;SDS011;4691;47.612;7.610;2022-09-20T23:39:53;10.25;;;4.10;;
9306;SDS011;4691;47.612;7.610;2022-09-20T23:42:29;9.75;;;4.32;;
9306;SDS011;4691;47.612;7.610;2022-09-20T23:45:04;6.60;;;4.13;;
9306;SDS011;4691;47.612;7.610;2022-09-20T23:50:47;10.32;;;4.82;;
9306;SDS011;4691;47.612;7.610;2022-09-20T23:53:33;8.57;;;4.75;;
9306;SDS011;4691;47.612;7.610;2022-09-20T23:56:11;10.15;;;4.40;;
9306;SDS011;4691;47.612;7.610;2022-09-20T23:58:46;8.05;;;5.03;;
